createdAt,value
2017-12-08T00:00:52.868Z,8.48
2017-12-08T00:03:21.971Z,8.49
2017-12-08T00:08:35.992Z,8.47
2017-12-08T00:11:04.339Z,8.47
2017-12-08T00:13:33.540Z,8.49
2017-12-08T00:16:01.868Z,8.49
2017-12-08T00:18:30.188Z,8.44
2017-12-08T00:20:59.289Z,8.36
2017-12-08T00:23:28.377Z,8.29
2017-12-08T00:25:57.506Z,8.22
2017-12-08T00:28:25.906Z,8.16
2017-12-08T00:30:54.254Z,8.09
2017-12-08T00:33:22.600Z,8.09
2017-12-08T00:35:50.964Z,8.05
2017-12-08T00:38:19.378Z,8.01
2017-12-08T00:40:47.689Z,8.01
2017-12-08T00:43:16.019Z,8.02
2017-12-08T00:45:44.424Z,8.04
2017-12-08T00:48:14.971Z,8.07
2017-12-08T00:50:44.056Z,8.12
2017-12-08T00:53:13.162Z,8.15
2017-12-08T00:55:41.466Z,8.15
2017-12-08T00:58:09.794Z,8.15
2017-12-08T01:00:38.730Z,8.16
2017-12-08T01:03:08.158Z,8.19
2017-12-08T01:05:36.506Z,8.22
2017-12-08T01:08:05.686Z,8.25
2017-12-08T01:10:35.080Z,8.28
2017-12-08T01:13:03.399Z,8.28
2017-12-08T01:15:32.555Z,8.25
2017-12-08T01:18:00.904Z,8.24
2017-12-08T01:20:30.021Z,8.24
2017-12-08T01:22:58.420Z,8.26
2017-12-08T01:25:26.792Z,8.23
2017-12-08T01:27:55.118Z,8.29
2017-12-08T01:30:24.172Z,8.19
2017-12-08T01:32:52.468Z,7.93
2017-12-08T01:35:20.783Z,7.70
2017-12-08T01:37:49.841Z,7.58
2017-12-08T01:40:18.988Z,7.47
2017-12-08T01:42:47.286Z,7.35
2017-12-08T01:45:15.590Z,7.26
2017-12-08T01:47:43.915Z,7.20
2017-12-08T01:50:12.985Z,7.08
2017-12-08T01:52:41.273Z,7.00
2017-12-08T01:55:09.570Z,6.99
2017-12-08T01:57:38.645Z,6.98
2017-12-08T02:00:07.007Z,6.97
2017-12-08T02:02:35.358Z,6.98
2017-12-08T02:05:03.648Z,6.99
2017-12-08T02:07:32.093Z,6.93
2017-12-08T02:10:01.166Z,6.86
2017-12-08T02:12:29.491Z,6.80
2017-12-08T02:14:57.886Z,6.77
2017-12-08T02:17:26.178Z,6.79
2017-12-08T02:19:54.470Z,6.77
2017-12-08T02:22:22.872Z,6.79
2017-12-08T02:24:51.185Z,6.82
2017-12-08T02:27:20.271Z,6.86
2017-12-08T02:29:49.357Z,6.90
2017-12-08T02:32:17.741Z,6.90
2017-12-08T02:34:46.086Z,6.90
2017-12-08T02:37:14.399Z,6.92
2017-12-08T02:39:42.774Z,6.94
2017-12-08T02:42:11.089Z,6.95
2017-12-08T02:44:40.152Z,6.98
2017-12-08T02:47:08.593Z,6.98
2017-12-08T02:49:36.895Z,7.00
2017-12-08T02:52:06.075Z,7.02
2017-12-08T02:54:34.384Z,6.98
2017-12-08T02:57:02.700Z,6.96
2017-12-08T02:59:31.796Z,6.97
2017-12-08T03:02:00.875Z,6.97
2017-12-08T03:04:29.175Z,6.94
2017-12-08T03:06:58.235Z,6.95
2017-12-08T03:09:26.570Z,6.97
2017-12-08T03:11:55.744Z,6.98
2017-12-08T03:14:24.065Z,6.98
2017-12-08T03:16:52.356Z,6.98
2017-12-08T03:19:20.647Z,6.97
2017-12-08T03:21:48.966Z,6.94
2017-12-08T03:24:18.044Z,6.88
2017-12-08T03:26:46.340Z,6.88
2017-12-08T03:29:14.642Z,6.86
2017-12-08T03:31:43.703Z,6.86
2017-12-08T03:34:11.989Z,6.86
2017-12-08T03:36:40.276Z,6.89
2017-12-08T03:39:08.577Z,6.91
2017-12-08T03:41:36.897Z,6.92
2017-12-08T03:44:05.279Z,6.97
2017-12-08T03:46:33.609Z,6.99
2017-12-08T03:49:02.673Z,7.02
2017-12-08T03:51:30.973Z,7.02
2017-12-08T03:53:59.279Z,7.02
2017-12-08T03:56:27.599Z,7.04
2017-12-08T03:58:55.901Z,7.00
2017-12-08T04:01:24.221Z,6.98
2017-12-08T04:03:53.314Z,7.01
2017-12-08T04:06:21.627Z,7.03
2017-12-08T04:08:49.927Z,7.09
2017-12-08T04:11:18.387Z,7.14
2017-12-08T04:13:46.718Z,7.20
2017-12-08T04:16:15.028Z,7.26
2017-12-08T04:18:44.106Z,7.26
2017-12-08T04:21:13.183Z,7.23
2017-12-08T04:23:41.477Z,7.21
2017-12-08T04:26:09.785Z,7.18
2017-12-08T04:28:38.858Z,7.21
2017-12-08T04:31:07.161Z,7.26
2017-12-08T04:33:36.222Z,7.25
2017-12-08T04:36:04.517Z,7.24
2017-12-08T04:38:32.891Z,7.19
2017-12-08T04:41:01.193Z,7.12
2017-12-08T04:43:29.641Z,7.09
2017-12-08T04:45:57.969Z,7.06
2017-12-08T04:48:27.053Z,7.08
2017-12-08T04:50:56.139Z,7.07
2017-12-08T04:53:24.463Z,7.06
2017-12-08T04:55:52.767Z,7.07
2017-12-08T04:58:21.095Z,7.09
2017-12-08T05:00:50.167Z,7.13
2017-12-08T05:03:18.466Z,7.14
2017-12-08T05:05:46.787Z,7.17
2017-12-08T05:08:15.576Z,7.18
2017-12-08T05:10:43.904Z,7.15
2017-12-08T05:13:12.225Z,7.14
2017-12-08T05:15:41.279Z,7.12
2017-12-08T05:18:09.770Z,7.13
2017-12-08T05:20:38.079Z,7.14
2017-12-08T05:23:07.131Z,7.01
2017-12-08T05:25:35.436Z,6.97
2017-12-08T05:28:05.239Z,6.91
2017-12-08T05:30:33.554Z,6.91
2017-12-08T05:33:02.633Z,6.88
2017-12-08T05:35:30.928Z,6.84
2017-12-08T05:38:00.002Z,6.85
2017-12-08T05:40:28.326Z,6.86
2017-12-08T05:42:56.624Z,6.86
2017-12-08T05:45:24.948Z,6.86
2017-12-08T05:47:53.308Z,6.88
2017-12-08T05:50:21.628Z,6.90
2017-12-08T05:52:50.770Z,6.89
2017-12-08T05:55:19.258Z,6.94
2017-12-08T05:57:47.557Z,6.95
2017-12-08T06:00:15.854Z,7.00
2017-12-08T06:02:44.170Z,7.04
2017-12-08T06:05:13.322Z,7.08
2017-12-08T06:07:41.706Z,7.13
2017-12-08T06:10:09.991Z,7.16
2017-12-08T06:12:38.434Z,7.18
2017-12-08T06:15:06.740Z,7.20
2017-12-08T06:17:35.144Z,7.16
2017-12-08T06:20:03.444Z,7.15
2017-12-08T06:22:32.538Z,7.11
2017-12-08T06:25:01.605Z,7.06
2017-12-08T06:27:29.970Z,7.05
2017-12-08T06:29:59.236Z,7.02
2017-12-08T06:32:27.575Z,7.01
2017-12-08T06:34:56.152Z,7.01
2017-12-08T06:37:25.260Z,7.00
2017-12-08T06:39:53.990Z,6.97
2017-12-08T06:42:23.059Z,7.01
2017-12-08T06:44:51.376Z,6.97
2017-12-08T06:47:19.686Z,6.84
2017-12-08T06:49:48.490Z,6.72
2017-12-08T06:52:16.888Z,6.64
2017-12-08T06:54:45.262Z,6.60
2017-12-08T06:57:13.809Z,6.48
2017-12-08T06:59:42.123Z,6.21
2017-12-08T07:02:10.555Z,5.93
2017-12-08T07:04:38.884Z,5.70
2017-12-08T07:07:07.208Z,5.55
2017-12-08T07:09:36.549Z,5.46
2017-12-08T07:12:04.865Z,5.30
2017-12-08T07:14:33.192Z,5.03
2017-12-08T07:17:01.515Z,4.79
2017-12-08T07:19:29.822Z,4.57
2017-12-08T07:21:58.102Z,4.40
2017-12-08T07:24:27.192Z,4.31
2017-12-08T07:26:55.509Z,4.29
2017-12-08T07:29:23.829Z,4.31
2017-12-08T07:31:52.117Z,4.30
2017-12-08T07:34:20.431Z,4.26
2017-12-08T07:36:49.604Z,4.21
2017-12-08T07:39:17.905Z,4.11
2017-12-08T07:41:46.975Z,4.06
2017-12-08T07:44:15.266Z,4.07
2017-12-08T07:46:44.353Z,4.09
2017-12-08T07:49:12.671Z,4.18
2017-12-08T07:51:41.746Z,4.28
2017-12-08T07:54:10.821Z,4.33
2017-12-08T07:56:39.216Z,4.37
2017-12-08T07:59:07.658Z,4.39
2017-12-08T08:01:35.963Z,4.43
2017-12-08T08:04:04.984Z,4.47
2017-12-08T08:06:33.288Z,4.46
2017-12-08T08:09:02.383Z,4.46
2017-12-08T08:11:31.465Z,4.44
2017-12-08T08:13:59.774Z,4.46
2017-12-08T08:16:28.121Z,4.46
2017-12-08T08:18:57.210Z,4.48
2017-12-08T08:21:25.524Z,4.51
2017-12-08T08:23:54.617Z,4.52
2017-12-08T08:26:23.701Z,4.55
2017-12-08T08:28:52.027Z,4.57
2017-12-08T08:31:20.336Z,4.60
2017-12-08T08:33:48.667Z,4.62
2017-12-08T08:36:17.755Z,4.61
2017-12-08T08:38:46.861Z,4.59
2017-12-08T08:41:15.150Z,4.51
2017-12-08T08:43:43.451Z,4.46
2017-12-08T08:46:11.750Z,4.46
2017-12-08T08:48:40.068Z,4.37
2017-12-08T08:51:09.270Z,4.13
2017-12-08T08:53:38.360Z,3.98
2017-12-08T08:56:06.828Z,3.92
2017-12-08T08:58:35.189Z,3.95
2017-12-08T09:01:04.308Z,3.97
2017-12-08T09:03:32.642Z,4.00
2017-12-08T09:06:00.946Z,4.05
2017-12-08T09:08:29.279Z,4.08
2017-12-08T09:10:58.473Z,4.14
2017-12-08T09:13:27.547Z,4.19
2017-12-08T09:15:55.865Z,4.18
2017-12-08T09:18:24.946Z,4.20
2017-12-08T09:20:53.296Z,4.19
2017-12-08T09:23:22.419Z,4.22
2017-12-08T09:25:51.503Z,4.32
2017-12-08T09:28:20.069Z,4.40
2017-12-08T09:30:48.478Z,4.47
2017-12-08T09:33:16.833Z,4.43
2017-12-08T09:35:45.136Z,4.30
2017-12-08T09:38:13.671Z,4.21
2017-12-08T09:40:41.982Z,4.15
2017-12-08T09:43:11.065Z,4.16
2017-12-08T09:45:39.406Z,4.21
2017-12-08T09:48:08.524Z,4.30
2017-12-08T09:50:36.862Z,4.39
2017-12-08T09:53:05.178Z,4.48
2017-12-08T09:55:34.267Z,4.56
2017-12-08T09:58:03.334Z,4.61
2017-12-08T10:00:31.662Z,4.66
2017-12-08T10:02:59.994Z,4.67
2017-12-08T10:05:28.495Z,4.75
2017-12-08T10:07:58.310Z,4.84
2017-12-08T10:10:26.626Z,4.93
2017-12-08T10:12:55.070Z,5.02
2017-12-08T10:15:23.367Z,5.19
2017-12-08T10:17:51.692Z,5.39
2017-12-08T10:20:20.739Z,5.46
2017-12-08T10:22:49.928Z,5.52
2017-12-08T10:25:19.741Z,5.58
2017-12-08T10:27:48.070Z,5.55
2017-12-08T10:30:16.427Z,5.56
2017-12-08T10:32:45.535Z,5.59
2017-12-08T10:35:14.606Z,5.65
2017-12-08T10:37:42.982Z,5.63
2017-12-08T10:40:11.298Z,5.58
2017-12-08T10:42:40.378Z,5.58
2017-12-08T10:45:08.676Z,5.58
2017-12-08T10:47:37.758Z,5.56
2017-12-08T10:50:06.821Z,5.26
2017-12-08T10:52:35.118Z,5.01
2017-12-08T10:55:03.428Z,4.91
2017-12-08T10:57:32.553Z,4.97
2017-12-08T11:00:00.908Z,5.04
2017-12-08T11:02:30.916Z,5.12
2017-12-08T11:04:59.232Z,5.21
2017-12-08T11:07:27.559Z,5.25
2017-12-08T11:09:55.889Z,5.33
2017-12-08T11:12:24.188Z,5.43
2017-12-08T11:14:52.501Z,5.48
2017-12-08T11:17:20.863Z,5.62
2017-12-08T11:19:49.178Z,5.69
2017-12-08T11:22:17.495Z,5.72
2017-12-08T11:24:45.918Z,5.69
2017-12-08T11:27:14.232Z,5.65
2017-12-08T11:29:43.310Z,5.61
2017-12-08T11:32:11.628Z,5.63
2017-12-08T11:34:39.966Z,5.62
2017-12-08T11:37:09.060Z,5.63
2017-12-08T11:39:37.365Z,5.68
2017-12-08T11:42:05.674Z,5.60
2017-12-08T11:44:33.993Z,5.43
2017-12-08T11:47:02.388Z,5.38
2017-12-08T11:49:30.682Z,5.46
2017-12-08T11:51:59.779Z,5.57
2017-12-08T11:54:28.146Z,5.62
2017-12-08T11:56:56.464Z,5.70
2017-12-08T11:59:25.528Z,5.85
2017-12-08T12:01:53.824Z,5.93
2017-12-08T12:04:22.123Z,6.00
2017-12-08T12:06:51.289Z,6.04
2017-12-08T12:09:19.595Z,6.06
2017-12-08T12:14:22.542Z,6.07
2017-12-08T12:16:51.781Z,6.02
2017-12-08T12:19:20.087Z,5.89
2017-12-08T12:21:49.168Z,5.72
2017-12-08T12:24:17.485Z,5.65
2017-12-08T12:26:45.802Z,5.59
2017-12-08T12:29:14.142Z,5.54
2017-12-08T12:31:43.253Z,5.50
2017-12-08T12:34:11.584Z,5.43
2017-12-08T12:36:39.922Z,5.30
2017-12-08T12:39:08.332Z,5.23
2017-12-08T12:41:36.654Z,5.26
2017-12-08T12:44:05.721Z,5.31
2017-12-08T12:46:34.061Z,5.30
2017-12-08T12:49:02.370Z,5.28
2017-12-08T12:51:30.726Z,5.25
2017-12-08T12:53:59.036Z,5.20
2017-12-08T12:56:27.369Z,5.23
2017-12-08T12:58:56.528Z,5.28
2017-12-08T13:01:24.838Z,5.33
2017-12-08T13:03:53.913Z,5.39
2017-12-08T13:06:22.225Z,5.45
2017-12-08T13:08:52.123Z,5.50
2017-12-08T13:11:21.220Z,5.58
2017-12-08T13:13:49.581Z,5.75
2017-12-08T13:16:17.909Z,5.91
2017-12-08T13:18:46.997Z,6.03
2017-12-08T13:21:16.061Z,6.18
2017-12-08T13:23:44.357Z,6.41
2017-12-08T13:26:12.690Z,6.46
2017-12-08T13:28:41.130Z,6.56
2017-12-08T13:31:10.216Z,6.66
2017-12-08T13:33:38.519Z,6.67
2017-12-08T13:36:07.609Z,6.69
2017-12-08T13:38:35.897Z,6.69
2017-12-08T13:41:04.984Z,6.66
2017-12-08T13:43:34.056Z,6.64
2017-12-08T13:46:02.387Z,6.61
2017-12-08T13:48:30.699Z,6.51
2017-12-08T13:50:59.062Z,6.40
2017-12-08T13:53:45.453Z,6.33
2017-12-08T13:56:31.472Z,6.27
2017-12-08T13:58:59.796Z,6.22
2017-12-08T14:01:28.888Z,6.18
2017-12-08T14:03:57.974Z,6.21
2017-12-08T14:06:26.273Z,6.24
2017-12-08T14:08:55.332Z,6.28
2017-12-08T14:11:23.684Z,6.36
2017-12-08T14:13:51.989Z,6.44
2017-12-08T14:16:20.335Z,6.47
2017-12-08T14:18:49.252Z,6.57
2017-12-08T14:21:17.597Z,6.62
2017-12-08T14:23:45.927Z,6.63
2017-12-08T14:26:14.242Z,6.63
2017-12-08T14:28:43.345Z,6.61
2017-12-08T14:31:12.443Z,6.61
2017-12-08T14:33:41.554Z,6.56
2017-12-08T14:36:09.949Z,6.53
2017-12-08T14:38:38.293Z,6.49
2017-12-08T14:41:07.359Z,6.43
2017-12-08T14:43:35.749Z,6.41
2017-12-08T14:46:04.037Z,6.39
2017-12-08T14:48:32.405Z,6.37
2017-12-08T14:51:01.563Z,6.37
2017-12-08T14:53:29.864Z,6.39
2017-12-08T14:55:58.185Z,6.43
2017-12-08T14:58:26.482Z,6.48
2017-12-08T15:00:55.565Z,6.53
2017-12-08T15:03:24.724Z,6.50
2017-12-08T15:05:53.029Z,6.51
2017-12-08T15:08:21.351Z,6.49
2017-12-08T15:10:50.408Z,6.45
2017-12-08T15:13:18.747Z,6.45
2017-12-08T15:15:47.095Z,6.45
2017-12-08T15:18:15.406Z,6.41
2017-12-08T15:20:43.713Z,6.38
2017-12-08T15:23:12.019Z,6.37
2017-12-08T15:25:40.330Z,6.39
2017-12-08T15:28:09.389Z,6.39
2017-12-08T15:30:37.688Z,6.37
2017-12-08T15:33:06.787Z,6.41
2017-12-08T15:35:35.841Z,6.47
2017-12-08T15:38:04.184Z,6.56
2017-12-08T15:40:33.412Z,6.64
2017-12-08T15:43:01.708Z,6.68
2017-12-08T15:45:30.014Z,6.81
2017-12-08T15:47:58.348Z,6.80
2017-12-08T15:50:26.647Z,6.85
2017-12-08T15:52:54.950Z,6.91
2017-12-08T15:55:23.256Z,6.85
2017-12-08T15:57:51.685Z,6.56
2017-12-08T16:00:20.102Z,6.25
2017-12-08T16:02:48.425Z,5.86
2017-12-08T16:05:16.724Z,5.51
2017-12-08T16:07:45.031Z,5.31
2017-12-08T16:10:13.329Z,5.22
2017-12-08T16:12:41.654Z,5.17
2017-12-08T16:15:10.078Z,5.09
2017-12-08T16:17:38.398Z,4.93
2017-12-08T16:20:07.499Z,4.79
2017-12-08T16:22:36.661Z,4.81
2017-12-08T16:25:05.111Z,4.86
2017-12-08T16:27:33.617Z,4.75
2017-12-08T16:30:02.025Z,4.73
2017-12-08T16:32:31.129Z,4.70
2017-12-08T16:35:00.214Z,4.72
2017-12-08T16:37:28.587Z,4.79
2017-12-08T16:39:57.145Z,4.82
2017-12-08T16:42:26.721Z,4.76
2017-12-08T16:44:55.821Z,4.52
2017-12-08T16:47:24.894Z,4.46
2017-12-08T16:49:53.300Z,4.39
2017-12-08T16:52:22.215Z,4.31
2017-12-08T16:54:50.531Z,4.28
2017-12-08T16:57:18.939Z,4.40
2017-12-08T16:59:47.305Z,4.42
2017-12-08T17:02:15.592Z,4.36
2017-12-08T17:04:43.909Z,4.23
2017-12-08T17:07:12.219Z,4.08
2017-12-08T17:09:40.543Z,3.94
2017-12-08T17:12:09.637Z,3.78
2017-12-08T17:14:37.955Z,3.69
2017-12-08T17:17:06.273Z,3.55
2017-12-08T17:19:34.587Z,3.54
2017-12-08T17:22:02.895Z,3.62
2017-12-08T17:24:31.214Z,3.74
2017-12-08T17:26:59.525Z,3.91
2017-12-08T17:29:28.763Z,4.05
2017-12-08T17:31:57.075Z,4.19
2017-12-08T17:34:25.389Z,4.34
2017-12-08T17:36:54.464Z,4.41
2017-12-08T17:39:22.982Z,4.43
2017-12-08T17:41:51.401Z,4.47
2017-12-08T17:44:19.689Z,4.50
2017-12-08T17:46:48.009Z,4.37
2017-12-08T17:49:16.377Z,4.28
2017-12-08T17:51:44.833Z,4.28
2017-12-08T17:54:13.229Z,4.30
2017-12-08T17:56:41.621Z,4.38
2017-12-08T17:59:10.097Z,4.46
2017-12-08T18:01:38.872Z,4.55
2017-12-08T18:04:07.232Z,4.65
2017-12-08T18:06:35.563Z,4.73
2017-12-08T18:09:03.923Z,4.75
2017-12-08T18:11:32.258Z,4.73
2017-12-08T18:14:00.617Z,4.73
2017-12-08T18:16:28.949Z,4.66
2017-12-08T18:18:57.251Z,4.29
2017-12-08T18:21:25.560Z,3.75
2017-12-08T18:23:55.131Z,3.39
2017-12-08T18:26:23.446Z,3.25
2017-12-08T18:28:51.752Z,3.26
2017-12-08T18:31:20.103Z,3.26
2017-12-08T18:33:48.410Z,3.31
2017-12-08T18:36:17.591Z,3.36
2017-12-08T18:38:46.719Z,3.38
2017-12-08T18:41:15.034Z,3.40
2017-12-08T18:43:43.380Z,3.41
2017-12-08T18:46:11.697Z,3.40
2017-12-08T18:48:40.077Z,3.45
2017-12-08T18:51:10.002Z,3.48
2017-12-08T18:53:38.341Z,3.50
2017-12-08T18:56:06.701Z,3.52
2017-12-08T18:58:36.177Z,3.56
2017-12-08T19:01:05.416Z,3.64
2017-12-08T19:03:34.510Z,3.65
2017-12-08T19:06:03.656Z,3.70
2017-12-08T19:08:31.990Z,3.73
2017-12-08T19:11:01.136Z,3.77
2017-12-08T19:13:29.552Z,3.78
2017-12-08T19:15:57.889Z,3.81
2017-12-08T19:18:26.202Z,3.79
2017-12-08T19:20:54.665Z,3.80
2017-12-08T19:23:23.180Z,3.84
2017-12-08T19:25:52.380Z,3.78
2017-12-08T19:28:21.508Z,3.48
2017-12-08T19:30:49.908Z,3.22
2017-12-08T19:33:18.229Z,3.05
2017-12-08T19:35:46.624Z,2.93
2017-12-08T19:38:15.751Z,2.87
2017-12-08T19:40:44.894Z,2.83
2017-12-08T19:43:13.216Z,2.84
2017-12-08T19:45:41.531Z,2.89
2017-12-08T19:48:09.850Z,2.98
2017-12-08T19:50:38.257Z,3.10
2017-12-08T19:53:06.568Z,3.18
2017-12-08T19:55:34.910Z,3.31
2017-12-08T19:58:03.286Z,3.39
2017-12-08T20:00:31.597Z,3.45
2017-12-08T20:03:00.668Z,3.41
2017-12-08T20:05:28.969Z,3.35
2017-12-08T20:07:58.086Z,3.34
2017-12-08T20:10:26.404Z,3.39
2017-12-08T20:12:54.704Z,3.41
2017-12-08T20:15:23.032Z,3.45
2017-12-08T20:17:51.336Z,3.30
2017-12-08T20:20:19.755Z,3.07
2017-12-08T20:22:48.086Z,2.87
2017-12-08T20:25:16.385Z,2.77
2017-12-08T20:27:44.879Z,2.80
2017-12-08T20:30:13.218Z,2.88
2017-12-08T20:32:41.550Z,2.96
2017-12-08T20:35:09.860Z,3.05
2017-12-08T20:37:38.972Z,3.13
2017-12-08T20:40:08.087Z,3.17
2017-12-08T20:42:36.413Z,3.19
2017-12-08T20:45:04.737Z,3.19
2017-12-08T20:47:34.266Z,3.25
2017-12-08T20:50:02.730Z,3.30
2017-12-08T20:52:31.818Z,3.34
2017-12-08T20:55:00.890Z,3.36
2017-12-08T20:57:29.201Z,3.37
2017-12-08T20:59:58.376Z,3.40
2017-12-08T21:02:26.736Z,3.43
2017-12-08T21:04:55.193Z,3.48
2017-12-08T21:07:23.752Z,3.53
2017-12-08T21:09:52.085Z,3.64
2017-12-08T21:12:20.458Z,3.76
2017-12-08T21:14:53.914Z,3.82
2017-12-08T21:17:23.079Z,3.87
2017-12-08T21:19:51.399Z,3.90
2017-12-08T21:22:19.736Z,3.95
2017-12-08T21:24:49.027Z,4.01
2017-12-08T21:27:17.998Z,4.08
2017-12-08T21:29:46.315Z,4.16
2017-12-08T21:32:14.736Z,4.19
2017-12-08T21:34:43.824Z,4.20
2017-12-08T21:37:13.183Z,4.19
2017-12-08T21:39:43.100Z,4.18
2017-12-08T21:42:11.423Z,4.17
2017-12-08T21:44:40.596Z,4.17
2017-12-08T21:47:09.053Z,4.16
2017-12-08T21:49:37.555Z,4.18
2017-12-08T21:52:05.884Z,4.20
2017-12-08T21:54:34.979Z,4.21
2017-12-08T21:57:04.112Z,4.25
2017-12-08T21:59:32.449Z,4.25
2017-12-08T22:02:00.768Z,4.23
2017-12-08T22:04:29.468Z,4.23
2017-12-08T22:06:57.787Z,4.25
2017-12-08T22:09:26.089Z,4.30
2017-12-08T22:11:55.201Z,4.36
2017-12-08T22:14:23.541Z,4.43
2017-12-08T22:16:51.853Z,4.49
2017-12-08T22:19:20.940Z,4.52
2017-12-08T22:21:50.020Z,4.51
2017-12-08T22:24:18.357Z,4.49
2017-12-08T22:26:46.696Z,4.50
2017-12-08T22:29:15.018Z,4.50
2017-12-08T22:31:43.379Z,4.46
2017-12-08T22:34:13.199Z,4.47
2017-12-08T22:36:42.272Z,4.45
2017-12-08T22:39:11.371Z,4.45
2017-12-08T22:41:40.549Z,4.44
2017-12-08T22:44:08.872Z,4.44
2017-12-08T22:46:37.317Z,4.42
2017-12-08T22:49:05.618Z,4.44
2017-12-08T22:51:34.734Z,4.48
2017-12-08T22:54:03.104Z,4.51
2017-12-08T22:56:32.198Z,4.48
2017-12-08T22:59:00.502Z,4.42
2017-12-08T23:01:28.822Z,4.41
2017-12-08T23:03:57.135Z,4.38
2017-12-08T23:06:25.449Z,4.39
2017-12-08T23:08:53.776Z,4.39
2017-12-08T23:11:22.103Z,4.42
2017-12-08T23:13:50.448Z,4.41
2017-12-08T23:16:18.749Z,4.36
2017-12-08T23:18:47.090Z,4.38
2017-12-08T23:21:15.440Z,4.40
2017-12-08T23:23:43.774Z,4.40
2017-12-08T23:26:12.864Z,4.43
2017-12-08T23:28:41.197Z,4.45
2017-12-08T23:31:09.527Z,4.50
2017-12-08T23:33:37.883Z,4.52
2017-12-08T23:36:06.189Z,4.56
2017-12-08T23:38:34.513Z,4.60
2017-12-08T23:41:02.851Z,4.62
2017-12-08T23:43:31.189Z,4.70
2017-12-08T23:45:59.496Z,4.76
2017-12-08T23:48:27.825Z,4.82
2017-12-08T23:50:56.915Z,4.88
2017-12-08T23:53:25.987Z,4.91
2017-12-08T23:55:54.311Z,4.97
2017-12-08T23:58:22.625Z,4.99
